createdAt,value
2023-04-16T00:00:54.886Z,16.70
2023-04-16T00:03:42.480Z,16.50
2023-04-16T00:06:30.193Z,17.80
2023-04-16T00:09:17.610Z,14.97
2023-04-16T00:12:05.083Z,16.43
2023-04-16T00:14:54.422Z,14.90
2023-04-16T00:17:41.800Z,16.47
2023-04-16T00:20:29.329Z,17.87
2023-04-16T00:23:16.828Z,16.60
2023-04-16T00:26:04.061Z,17.37
2023-04-16T00:28:51.827Z,15.43
2023-04-16T00:31:40.622Z,15.60
2023-04-16T00:34:28.120Z,16.50
2023-04-16T00:37:15.620Z,19.40
2023-04-16T00:40:03.243Z,16.83
2023-04-16T00:42:50.849Z,17.87
2023-04-16T00:45:38.311Z,16.57
2023-04-16T00:48:28.357Z,15.93
2023-04-16T00:51:16.601Z,17.93
2023-04-16T00:54:04.895Z,18.17
2023-04-16T00:56:52.829Z,18.10
2023-04-16T00:59:40.120Z,17.87
2023-04-16T01:02:27.995Z,16.27
2023-04-16T01:05:16.879Z,16.03
2023-04-16T01:08:04.427Z,19.67
2023-04-16T01:10:52.410Z,17.90
2023-04-16T01:13:40.110Z,19.17
2023-04-16T01:16:27.731Z,16.37
2023-04-16T01:19:15.521Z,18.87
2023-04-16T01:22:04.294Z,20.13
2023-04-16T01:24:51.976Z,18.57
2023-04-16T01:27:39.225Z,19.43
2023-04-16T01:30:26.540Z,19.60
2023-04-16T01:33:43.330Z,17.53
2023-04-16T01:36:32.843Z,20.27
2023-04-16T01:39:21.572Z,19.13
2023-04-16T01:42:09.034Z,19.73
2023-04-16T01:44:56.399Z,19.33
2023-04-16T01:47:43.822Z,22.40
2023-04-16T01:50:31.753Z,19.07
2023-04-16T01:53:18.889Z,18.23
2023-04-16T01:56:08.147Z,19.97
2023-04-16T01:58:55.784Z,24.87
2023-04-16T02:01:44.638Z,24.00
2023-04-16T02:04:32.029Z,20.57
2023-04-16T02:07:19.327Z,20.90
2023-04-16T02:10:07.496Z,22.87
2023-04-16T02:12:56.481Z,23.57
2023-04-16T02:15:47.371Z,22.13
2023-04-16T02:18:35.910Z,24.33
2023-04-16T02:21:23.312Z,23.47
2023-04-16T02:24:11.154Z,23.70
2023-04-16T02:26:58.529Z,23.97
2023-04-16T02:29:47.782Z,24.23
2023-04-16T02:32:37.907Z,25.37
2023-04-16T02:35:25.872Z,23.87
2023-04-16T02:38:13.401Z,23.13
2023-04-16T02:41:01.010Z,22.33
2023-04-16T02:43:49.638Z,24.97
2023-04-16T02:46:38.328Z,26.30
2023-04-16T02:49:26.527Z,23.50
2023-04-16T02:52:15.546Z,20.67
2023-04-16T02:55:03.253Z,21.40
2023-04-16T02:57:51.959Z,23.37
2023-04-16T03:00:39.864Z,21.83
2023-04-16T03:03:28.878Z,25.33
2023-04-16T03:06:16.757Z,24.13
2023-04-16T03:09:04.393Z,24.73
2023-04-16T03:11:51.882Z,24.90
2023-04-16T03:14:39.268Z,26.70
2023-04-16T03:17:27.064Z,23.77
2023-04-16T03:20:16.956Z,23.83
2023-04-16T03:23:04.346Z,22.83
2023-04-16T03:25:51.799Z,24.50
2023-04-16T03:28:39.702Z,28.13
2023-04-16T03:31:27.367Z,29.40
2023-04-16T03:34:15.900Z,25.40
2023-04-16T03:37:06.047Z,33.97
2023-04-16T03:39:53.449Z,31.37
2023-04-16T03:42:41.146Z,31.90
2023-04-16T03:45:28.672Z,32.57
2023-04-16T03:48:16.697Z,37.47
2023-04-16T03:51:04.118Z,34.33
2023-04-16T03:53:53.178Z,30.57
2023-04-16T03:56:42.028Z,36.40
2023-04-16T03:59:29.275Z,33.07
2023-04-16T04:02:16.823Z,33.83
2023-04-16T04:05:04.563Z,35.73
2023-04-16T04:07:53.009Z,37.90
2023-04-16T04:10:41.864Z,32.70
2023-04-16T04:13:31.372Z,36.00
2023-04-16T04:16:19.240Z,34.27
2023-04-16T04:19:06.735Z,36.47
2023-04-16T04:21:54.534Z,36.27
2023-04-16T04:24:42.812Z,35.40
2023-04-16T04:27:31.354Z,37.47
2023-04-16T04:30:19.112Z,30.40
2023-04-16T04:33:06.848Z,34.03
2023-04-16T04:35:54.557Z,33.80
2023-04-16T04:38:42.151Z,31.57
2023-04-16T04:41:29.922Z,30.80
2023-04-16T04:44:18.608Z,33.00
2023-04-16T04:47:06.034Z,29.90
2023-04-16T04:49:53.261Z,31.03
2023-04-16T04:52:41.328Z,35.83
2023-04-16T04:55:29.163Z,29.20
2023-04-16T04:58:16.444Z,29.50
2023-04-16T05:01:05.927Z,34.53
2023-04-16T05:03:53.631Z,36.70
2023-04-16T05:06:41.036Z,37.30
2023-04-16T05:09:28.192Z,31.83
2023-04-16T05:12:15.654Z,34.13
2023-04-16T05:15:03.028Z,42.03
2023-04-16T05:17:52.176Z,35.13
2023-04-16T05:20:39.692Z,38.47
2023-04-16T05:23:27.028Z,41.33
2023-04-16T05:26:14.406Z,41.73
2023-04-16T05:29:01.849Z,31.60
2023-04-16T05:31:49.472Z,31.90
2023-04-16T05:34:38.269Z,36.97
2023-04-16T05:37:25.775Z,28.70
2023-04-16T05:40:14.055Z,30.50
2023-04-16T05:43:01.499Z,32.97
2023-04-16T05:45:48.906Z,30.83
2023-04-16T05:48:36.163Z,31.27
2023-04-16T05:51:26.076Z,29.10
2023-04-16T05:54:13.656Z,27.80
2023-04-16T05:57:02.082Z,27.70
2023-04-16T05:59:49.696Z,30.60
2023-04-16T06:02:37.203Z,24.43
2023-04-16T06:05:24.631Z,29.40
2023-04-16T06:08:13.434Z,27.67
2023-04-16T06:11:00.991Z,27.07
2023-04-16T06:13:48.305Z,30.23
2023-04-16T06:16:36.741Z,28.13
2023-04-16T06:19:24.296Z,25.03
2023-04-16T06:22:11.817Z,24.97
2023-04-16T06:25:00.895Z,22.37
2023-04-16T06:27:48.335Z,27.17
2023-04-16T06:30:35.955Z,32.17
2023-04-16T06:33:23.490Z,25.83
2023-04-16T06:36:11.514Z,25.80
2023-04-16T06:38:59.266Z,25.50
2023-04-16T06:41:48.079Z,25.93
2023-04-16T06:44:35.738Z,28.53
2023-04-16T06:47:23.172Z,27.27
2023-04-16T06:50:10.719Z,25.13
2023-04-16T06:52:58.541Z,25.57
2023-04-16T06:55:46.168Z,26.40
2023-04-16T06:58:34.950Z,28.60
2023-04-16T07:01:22.526Z,30.37
2023-04-16T07:04:10.915Z,27.17
2023-04-16T07:06:58.487Z,24.60
2023-04-16T07:09:46.023Z,27.20
2023-04-16T07:12:34.108Z,27.87
2023-04-16T07:15:22.887Z,22.27
2023-04-16T07:18:10.568Z,24.17
2023-04-16T07:20:58.029Z,24.37
2023-04-16T07:23:45.604Z,22.70
2023-04-16T07:26:32.991Z,23.97
2023-04-16T07:29:20.492Z,22.90
2023-04-16T07:32:09.561Z,24.63
2023-04-16T07:34:57.213Z,25.57
2023-04-16T07:37:45.022Z,22.30
2023-04-16T07:40:32.592Z,20.93
2023-04-16T07:43:20.050Z,21.53
2023-04-16T07:46:07.821Z,19.90
2023-04-16T07:48:56.546Z,19.90
2023-04-16T07:51:44.090Z,21.83
2023-04-16T07:54:31.442Z,22.57
2023-04-16T07:57:18.903Z,22.17
2023-04-16T08:00:06.991Z,23.13
2023-04-16T08:03:03.564Z,20.53
2023-04-16T08:05:52.858Z,19.90
2023-04-16T08:08:40.516Z,19.67
2023-04-16T08:11:28.110Z,22.37
2023-04-16T08:14:15.722Z,19.67
2023-04-16T08:17:03.208Z,17.37
2023-04-16T08:19:50.385Z,20.50
2023-04-16T08:22:39.214Z,21.43
2023-04-16T08:25:26.823Z,20.10
2023-04-16T08:28:14.333Z,21.20
2023-04-16T08:31:01.714Z,20.97
2023-04-16T08:33:49.087Z,18.80
2023-04-16T08:36:36.562Z,20.10
2023-04-16T08:39:25.513Z,23.80
2023-04-16T08:42:14.924Z,22.33
2023-04-16T08:45:08.411Z,23.33
2023-04-16T08:47:55.878Z,25.53
2023-04-16T08:50:43.581Z,20.60
2023-04-16T08:53:34.585Z,21.00
2023-04-16T08:56:24.925Z,20.57
2023-04-16T08:59:12.266Z,21.87
2023-04-16T09:02:00.450Z,17.70
2023-04-16T09:04:48.645Z,18.40
2023-04-16T09:07:36.412Z,23.47
2023-04-16T09:10:24.099Z,18.37
2023-04-16T09:13:13.421Z,21.47
2023-04-16T09:16:01.679Z,19.50
2023-04-16T09:18:49.027Z,20.13
2023-04-16T09:21:36.514Z,20.13
2023-04-16T09:24:24.485Z,21.00
2023-04-16T09:27:12.011Z,21.47
2023-04-16T09:30:00.901Z,19.27
2023-04-16T09:32:48.659Z,20.93
2023-04-16T09:35:46.324Z,18.43
2023-04-16T09:38:47.773Z,21.43
2023-04-16T09:41:38.123Z,21.60
2023-04-16T09:44:36.274Z,25.53
2023-04-16T09:47:25.694Z,17.57
2023-04-16T09:50:19.200Z,19.87
2023-04-16T09:57:29.296Z,15.47
2023-04-16T10:00:20.668Z,16.57
2023-04-16T10:03:10.605Z,17.80
2023-04-16T10:05:58.220Z,17.40
2023-04-16T10:08:46.968Z,19.40
2023-04-16T10:11:36.155Z,16.40
2023-04-16T10:14:23.696Z,15.80
2023-04-16T10:17:11.567Z,17.17
2023-04-16T10:20:01.449Z,17.10
2023-04-16T10:22:49.128Z,16.67
2023-04-16T10:25:36.518Z,18.23
2023-04-16T10:28:24.472Z,16.73
2023-04-16T10:31:11.850Z,20.07
2023-04-16T10:34:00.251Z,18.17
2023-04-16T10:36:52.779Z,18.57
2023-04-16T10:39:40.447Z,18.57
2023-04-16T10:42:28.505Z,18.83
2023-04-16T10:45:16.092Z,19.53
2023-04-16T10:48:06.689Z,18.90
2023-04-16T10:50:58.288Z,19.60
2023-04-16T10:53:47.040Z,20.30
2023-04-16T10:56:35.317Z,19.53
2023-04-16T10:59:23.374Z,18.93
2023-04-16T11:02:13.777Z,19.40
2023-04-16T11:05:03.690Z,18.40
2023-04-16T11:07:51.681Z,20.57
2023-04-16T11:10:42.175Z,21.83
2023-04-16T11:13:29.935Z,22.67
2023-04-16T11:16:18.018Z,29.97
2023-04-16T11:19:06.236Z,23.87
2023-04-16T11:21:53.900Z,20.87
2023-04-16T11:24:41.650Z,22.53
2023-04-16T11:27:31.804Z,23.53
2023-04-16T11:30:19.559Z,21.43
2023-04-16T11:33:07.307Z,22.03
2023-04-16T11:35:58.864Z,21.50
2023-04-16T11:38:46.442Z,19.27
2023-04-16T11:41:33.893Z,19.77
2023-04-16T11:44:24.195Z,20.27
2023-04-16T11:47:13.624Z,21.17
2023-04-16T11:50:16.854Z,18.17
2023-04-16T11:53:05.848Z,17.47
2023-04-16T11:55:53.515Z,18.20
2023-04-16T11:58:43.145Z,15.83
2023-04-16T12:01:32.350Z,19.67
2023-04-16T12:04:21.625Z,17.20
2023-04-16T12:07:10.026Z,17.53
2023-04-16T12:10:07.133Z,17.30
2023-04-16T12:12:54.792Z,14.60
2023-04-16T12:15:45.902Z,14.37
2023-04-16T12:18:34.962Z,15.77
2023-04-16T12:21:22.310Z,15.10
2023-04-16T12:24:10.636Z,15.50
2023-04-16T12:27:02.354Z,17.40
2023-04-16T12:30:04.149Z,16.87
2023-04-16T12:32:52.156Z,15.33
2023-04-16T12:35:41.906Z,14.57
2023-04-16T12:38:29.504Z,14.73
2023-04-16T12:41:16.926Z,17.80
2023-04-16T12:44:06.694Z,17.83
2023-04-16T12:46:55.079Z,18.87
2023-04-16T12:49:42.790Z,16.80
2023-04-16T12:52:31.634Z,18.33
2023-04-16T12:55:19.445Z,17.03
2023-04-16T12:58:07.117Z,16.70
2023-04-16T13:00:54.557Z,16.10
2023-04-16T13:03:42.048Z,17.53
2023-04-16T13:06:29.777Z,13.50
2023-04-16T13:09:20.132Z,14.83
2023-04-16T13:12:08.159Z,14.10
2023-04-16T13:14:55.910Z,13.33
2023-04-16T13:17:43.538Z,14.90
2023-04-16T13:20:30.947Z,14.63
2023-04-16T13:23:18.472Z,16.13
2023-04-16T13:26:07.182Z,12.13
2023-04-16T13:28:54.761Z,12.90
2023-04-16T13:31:42.512Z,13.70
2023-04-16T13:34:29.968Z,11.87
2023-04-16T13:37:17.405Z,11.13
2023-04-16T13:40:04.774Z,13.57
2023-04-16T13:42:53.868Z,11.63
2023-04-16T13:45:41.685Z,12.83
2023-04-16T13:48:30.213Z,12.87
2023-04-16T13:51:17.818Z,13.47
2023-04-16T13:54:05.352Z,11.20
2023-04-16T13:56:53.009Z,11.83
2023-04-16T13:59:41.695Z,13.10
2023-04-16T14:02:29.366Z,11.13
2023-04-16T14:05:16.739Z,11.53
2023-04-16T14:08:04.477Z,12.40
2023-04-16T14:10:51.775Z,12.80
2023-04-16T14:13:39.091Z,12.27
2023-04-16T14:16:28.343Z,10.63
2023-04-16T14:19:15.922Z,12.93
2023-04-16T14:22:03.262Z,12.40
2023-04-16T14:24:50.705Z,12.20
2023-04-16T14:27:38.172Z,11.67
2023-04-16T14:30:25.656Z,11.80
2023-04-16T14:33:14.243Z,13.50
2023-04-16T14:36:03.246Z,12.30
2023-04-16T14:38:51.024Z,10.60
2023-04-16T14:41:38.758Z,10.93
2023-04-16T14:44:26.382Z,12.27
2023-04-16T14:47:13.703Z,9.73
2023-04-16T14:50:02.626Z,13.25
2023-04-16T14:52:50.351Z,9.32
2023-04-16T14:55:37.723Z,9.50
2023-04-16T14:58:25.112Z,9.00
2023-04-16T15:01:14.562Z,10.00
2023-04-16T15:04:02.960Z,7.93
2023-04-16T15:06:52.019Z,9.70
2023-04-16T15:09:39.648Z,9.13
2023-04-16T15:12:27.463Z,9.13
2023-04-16T15:15:15.578Z,9.83
2023-04-16T15:18:03.228Z,8.30
2023-04-16T15:20:51.439Z,8.93
2023-04-16T15:23:40.530Z,9.03
2023-04-16T15:26:28.351Z,10.00
2023-04-16T15:29:15.902Z,9.50
2023-04-16T15:32:03.379Z,8.30
2023-04-16T15:34:50.882Z,9.90
2023-04-16T15:37:38.805Z,7.97
2023-04-16T15:40:27.540Z,7.40
2023-04-16T15:43:14.931Z,8.30
2023-04-16T15:46:02.261Z,8.30
2023-04-16T15:48:49.692Z,9.67
2023-04-16T15:51:37.030Z,9.03
2023-04-16T15:54:24.525Z,8.50
2023-04-16T15:57:13.296Z,8.27
2023-04-16T16:00:06.536Z,9.77
2023-04-16T16:02:55.015Z,11.33
2023-04-16T16:05:42.813Z,8.93
2023-04-16T16:08:34.072Z,9.73
2023-04-16T16:11:21.789Z,9.10
2023-04-16T16:14:10.840Z,9.63
2023-04-16T16:16:58.534Z,10.10
2023-04-16T16:19:46.572Z,8.97
2023-04-16T16:22:34.384Z,11.23
2023-04-16T16:25:22.231Z,10.00
2023-04-16T16:28:09.740Z,11.17
2023-04-16T16:30:59.374Z,12.00
2023-04-16T16:33:47.031Z,11.60
2023-04-16T16:36:36.695Z,10.73
2023-04-16T16:39:25.239Z,11.63
2023-04-16T16:42:13.900Z,9.93
2023-04-16T16:45:05.094Z,11.73
2023-04-16T16:47:54.731Z,8.33
2023-04-16T16:50:42.037Z,11.00
2023-04-16T16:53:29.281Z,8.63
2023-04-16T16:56:16.688Z,8.60
2023-04-16T16:59:04.052Z,9.50
2023-04-16T17:01:51.677Z,8.67
2023-04-16T17:04:40.325Z,10.77
2023-04-16T17:07:27.896Z,9.00
2023-04-16T17:10:20.013Z,12.43
2023-04-16T17:13:07.783Z,10.33
2023-04-16T17:15:55.303Z,10.97
2023-04-16T17:18:42.772Z,10.93
2023-04-16T17:21:33.143Z,10.43
2023-04-16T17:24:20.612Z,9.10
2023-04-16T17:27:08.073Z,9.80
2023-04-16T17:30:00.013Z,10.10
2023-04-16T17:32:47.567Z,9.40
2023-04-16T17:35:35.141Z,9.03
2023-04-16T17:38:24.246Z,9.47
2023-04-16T17:41:11.561Z,8.67
2023-04-16T17:43:58.926Z,8.10
2023-04-16T17:46:46.307Z,8.40
2023-04-16T17:49:33.688Z,8.83
2023-04-16T17:52:21.216Z,8.13
2023-04-16T17:55:10.834Z,12.90
2023-04-16T17:57:58.379Z,14.23
2023-04-16T18:00:46.283Z,8.57
2023-04-16T18:03:34.553Z,8.83
2023-04-16T18:06:22.064Z,9.20
2023-04-16T18:09:09.365Z,9.00
2023-04-16T18:11:58.087Z,11.63
2023-04-16T18:14:46.144Z,11.30
2023-04-16T18:17:33.720Z,8.63
2023-04-16T18:20:21.339Z,10.80
2023-04-16T18:23:09.020Z,18.97
2023-04-16T18:25:56.441Z,10.90
2023-04-16T18:28:45.517Z,9.40
2023-04-16T18:31:33.012Z,9.27
2023-04-16T18:34:20.609Z,12.90
2023-04-16T18:37:08.273Z,9.87
2023-04-16T18:39:57.769Z,12.83
2023-04-16T18:42:45.572Z,15.47
2023-04-16T18:45:34.456Z,10.87
2023-04-16T18:48:22.308Z,12.77
2023-04-16T18:51:09.701Z,11.60
2023-04-16T18:53:57.170Z,11.83
2023-04-16T18:56:44.976Z,11.00
2023-04-16T18:59:32.484Z,10.50
2023-04-16T19:02:21.421Z,9.17
2023-04-16T19:05:09.652Z,11.77
2023-04-16T19:07:57.257Z,9.23
2023-04-16T19:10:44.642Z,11.47
2023-04-16T19:13:32.268Z,9.87
2023-04-16T19:16:19.906Z,10.97
2023-04-16T19:19:08.877Z,11.70
2023-04-16T19:21:56.411Z,12.37
2023-04-16T19:24:43.846Z,11.10
2023-04-16T19:27:31.276Z,12.43
2023-04-16T19:30:18.763Z,11.20
2023-04-16T19:33:06.333Z,11.53
2023-04-16T19:35:55.134Z,12.03
2023-04-16T19:38:42.683Z,11.97
2023-04-16T19:41:29.962Z,11.97
2023-04-16T19:44:17.310Z,12.20
2023-04-16T19:47:06.114Z,12.77
2023-04-16T19:49:53.982Z,11.13
2023-04-16T19:52:42.756Z,15.87
2023-04-16T19:55:30.040Z,15.43
2023-04-16T19:58:17.752Z,10.97
2023-04-16T20:01:10.129Z,17.73
2023-04-16T20:03:57.789Z,12.00
2023-04-16T20:06:45.133Z,14.97
2023-04-16T20:09:33.825Z,12.53
2023-04-16T20:12:21.468Z,11.90
2023-04-16T20:15:09.620Z,15.20
2023-04-16T20:17:57.154Z,15.30
2023-04-16T20:20:44.574Z,13.87
2023-04-16T20:23:32.103Z,13.97
2023-04-16T20:26:20.843Z,13.80
2023-04-16T20:29:09.993Z,13.37
2023-04-16T20:31:57.930Z,14.03
2023-04-16T20:34:45.335Z,12.60
2023-04-16T20:37:37.956Z,12.20
2023-04-16T20:40:30.380Z,11.20
2023-04-16T20:43:19.239Z,11.37
2023-04-16T20:46:07.448Z,11.67
2023-04-16T20:48:55.173Z,11.17
2023-04-16T20:51:42.516Z,11.13
2023-04-16T20:54:29.957Z,15.77
2023-04-16T20:57:17.307Z,15.33
2023-04-16T21:00:09.357Z,10.43
2023-04-16T21:02:57.152Z,8.73
2023-04-16T21:05:49.881Z,8.97
2023-04-16T21:08:37.349Z,10.00
2023-04-16T21:11:24.805Z,12.83
2023-04-16T21:14:12.056Z,9.77
2023-04-16T21:17:01.021Z,11.93
2023-04-16T21:19:48.852Z,11.23
2023-04-16T21:22:36.087Z,10.77
2023-04-16T21:25:23.933Z,12.77
2023-04-16T21:28:11.376Z,13.73
2023-04-16T21:30:59.079Z,12.73
2023-04-16T21:33:47.893Z,12.77
2023-04-16T21:36:35.512Z,10.60
2023-04-16T21:39:24.409Z,12.50
2023-04-16T21:42:11.720Z,13.80
2023-04-16T21:44:59.054Z,9.33
2023-04-16T21:47:46.501Z,8.63
2023-04-16T21:50:35.346Z,10.87
2023-04-16T21:53:22.947Z,11.47
2023-04-16T21:56:10.234Z,12.07
2023-04-16T21:58:57.744Z,11.33
2023-04-16T22:01:45.198Z,10.57
2023-04-16T22:04:38.965Z,15.33
2023-04-16T22:07:28.888Z,11.33
2023-04-16T22:10:16.522Z,15.80
2023-04-16T22:13:04.241Z,13.27
2023-04-16T22:15:51.656Z,14.53
2023-04-16T22:18:40.942Z,15.70
2023-04-16T22:21:28.451Z,14.10
2023-04-16T22:24:17.114Z,10.97
2023-04-16T22:27:04.863Z,12.53
2023-04-16T22:29:52.412Z,12.20
2023-04-16T22:32:39.778Z,13.20
2023-04-16T22:35:27.556Z,10.67
2023-04-16T22:38:16.449Z,15.30
2023-04-16T22:41:05.423Z,13.23
2023-04-16T22:43:53.005Z,13.50
2023-04-16T22:46:40.797Z,12.57
2023-04-16T22:49:32.913Z,14.43
2023-04-16T22:52:20.746Z,14.00
2023-04-16T22:55:08.530Z,11.90
2023-04-16T22:57:57.240Z,11.17
2023-04-16T23:00:45.048Z,14.07
2023-04-16T23:03:32.831Z,12.50
2023-04-16T23:06:20.597Z,11.07
2023-04-16T23:09:08.148Z,12.47
2023-04-16T23:11:55.763Z,12.20
2023-04-16T23:14:45.918Z,14.40
2023-04-16T23:17:34.992Z,13.77
2023-04-16T23:20:22.947Z,12.87
2023-04-16T23:23:10.373Z,11.80
2023-04-16T23:25:57.934Z,12.00
2023-04-16T23:28:47.596Z,12.97
2023-04-16T23:31:36.687Z,12.60
2023-04-16T23:34:24.188Z,12.70
2023-04-16T23:37:11.659Z,12.87
2023-04-16T23:39:59.160Z,12.07
2023-04-16T23:42:46.454Z,10.20
2023-04-16T23:45:33.760Z,12.07
2023-04-16T23:48:22.559Z,11.50
2023-04-16T23:51:10.268Z,14.03
2023-04-16T23:53:57.690Z,11.50
2023-04-16T23:56:45.236Z,11.43
2023-04-16T23:59:32.636Z,11.27
